Time;durP1;ratioP1;P1;durP2;ratioP2;P2;SDS_P1;SDS_P2;PMS_P1;PMS_P2;Temp;Humidity;BMP_temperature;BMP_pressure;BME280_temperature;BME280_humidity;BME280_pressure;Samples;Min_cycle;Max_cycle;Signal;HPM_P1;HPM_P2
2022/09/12 00:01:34;;;;;;;8.82;6.03;;;;;;;15.14;48.52;99561.28;5019894;28;20141;-71
2022/09/12 00:04:01;;;;;;;11.07;6.38;;;;;;;15.22;48.59;99560.38;5036447;28;20500;-71
2022/09/12 00:06:29;;;;;;;8.05;5.60;;;;;;;15.28;48.22;99543.56;5019985;28;20415;-72
2022/09/12 00:08:57;;;;;;;13.55;5.95;;;;;;;15.45;48.02;99561.06;5036083;28;20048;-72
2022/09/12 00:11:25;;;;;;;10.32;5.82;;;;;;;15.36;48.90;99555.97;5052740;28;20044;-72
2022/09/12 00:13:58;;;;;;;12.38;5.93;;;;;;;15.47;48.27;99556.31;5052940;28;20048;-71
2022/09/12 00:16:26;;;;;;;12.43;5.80;;;;;;;15.38;48.63;99545.91;5020003;28;20044;-72
2022/09/12 00:18:52;;;;;;;13.48;6.57;;;;;;;15.36;48.61;99553.31;5052585;28;20852;-72
2022/09/12 00:21:19;;;;;;;11.75;6.15;;;;;;;15.44;48.56;99543.31;5019682;28;20052;-72
2022/09/12 00:23:45;;;;;;;9.60;5.72;;;;;;;15.48;48.81;99541.09;5052562;28;20047;-71
2022/09/12 00:26:11;;;;;;;9.05;5.57;;;;;;;15.45;48.72;99547.66;5035751;28;20102;-72
2022/09/12 00:28:43;;;;;;;8.20;5.10;;;;;;;15.50;48.78;99550.56;5036070;28;20040;-71
2022/09/12 00:31:11;;;;;;;13.20;5.35;;;;;;;15.58;48.88;99544.25;5036236;28;20048;-71
2022/09/12 00:33:37;;;;;;;9.23;5.10;;;;;;;15.47;48.86;99539.44;5019553;28;20036;-71
2022/09/12 00:36:15;;;;;;;12.90;5.97;;;;;;;15.66;49.43;99528.91;5019672;28;20135;-71
2022/09/12 00:38:41;;;;;;;11.98;5.70;;;;;;;15.55;49.03;99532.09;5053185;28;20043;-71
2022/09/12 00:41:15;;;;;;;15.65;7.28;;;;;;;15.75;48.36;99525.06;5020488;28;20036;-72
2022/09/12 00:43:46;;;;;;;17.35;7.13;;;;;;;15.76;48.17;99521.34;5072734;28;20068;-72
2022/09/12 00:46:24;;;;;;;16.02;7.53;;;;;;;15.54;48.17;99514.41;5036045;28;20087;-73
2022/09/12 00:49:13;;;;;;;29.50;7.20;;;;;;;15.80;47.80;99514.63;5052380;28;20043;-72
2022/09/12 00:51:42;;;;;;;23.58;6.68;;;;;;;15.85;47.35;99528.22;5035891;28;20503;-71
2022/09/12 00:54:11;;;;;;;21.90;6.82;;;;;;;15.77;47.68;99504.28;5052415;28;20048;-72
2022/09/12 00:56:39;;;;;;;11.82;6.57;;;;;;;15.80;47.86;99525.31;5051996;28;20052;-71
2022/09/12 00:59:11;;;;;;;12.15;6.07;;;;;;;15.85;48.04;99528.22;5035928;28;20419;-71
2022/09/12 01:01:38;;;;;;;16.98;6.40;;;;;;;15.80;48.01;99528.00;5052295;28;20052;-72
2022/09/12 01:04:04;;;;;;;10.82;5.47;;;;;;;15.56;48.09;99532.94;5052383;28;20052;-71
2022/09/12 01:06:39;;;;;;;14.55;6.35;;;;;;;15.78;48.18;99522.00;5069044;28;20049;-71
2022/09/12 01:09:06;;;;;;;17.85;6.25;;;;;;;15.69;47.85;99519.66;5052326;28;20049;-72
2022/09/12 01:11:35;;;;;;;11.13;6.30;;;;;;;15.76;48.21;99518.69;5019497;28;20139;-72
2022/09/12 01:14:01;;;;;;;11.77;5.30;;;;;;;15.53;48.39;99523.44;5019540;28;20040;-72
2022/09/12 01:16:27;;;;;;;16.77;6.35;;;;;;;15.64;47.96;99532.78;5052347;28;20492;-72
2022/09/12 01:19:30;;;;;;;18.92;7.45;;;;;;;15.74;48.32;99528.78;5019048;28;20135;-72
2022/09/12 01:22:28;;;;;;;13.55;6.30;;;;;;;15.47;48.84;99518.03;5051858;28;20044;-71
2022/09/12 01:25:04;;;;;;;11.38;6.22;;;;;;;15.57;48.74;99527.41;5052027;28;20052;-72
2022/09/12 01:27:52;;;;;;;12.80;6.95;;;;;;;15.68;48.47;99526.03;5052150;28;20056;-72
2022/09/12 01:30:55;;;;;;;10.98;6.10;;;;;;;15.72;48.40;99527.28;5035364;28;20048;-72
2022/09/12 01:33:23;;;;;;;16.50;7.30;;;;;;;15.61;48.59;99519.78;5035533;28;20048;-72
2022/09/12 01:36:06;;;;;;;18.98;7.28;;;;;;;15.67;48.50;99519.03;5035313;28;20464;-71
2022/09/12 01:38:38;;;;;;;14.20;6.55;;;;;;;15.70;48.01;99524.00;5055851;28;20131;-71
2022/09/12 01:41:21;;;;;;;15.20;6.45;;;;;;;15.63;48.45;99520.44;5039314;28;20621;-72
2022/09/12 01:44:12;;;;;;;20.30;7.18;;;;;;;15.50;48.84;99518.47;5038837;28;20504;-72
2022/09/12 01:46:44;;;;;;;14.63;6.88;;;;;;;15.34;49.27;99520.53;5071987;28;20043;-72
2022/09/12 01:49:19;;;;;;;16.23;6.63;;;;;;;15.50;48.57;99513.09;5055562;28;20049;-71
2022/09/12 01:51:59;;;;;;;16.02;6.85;;;;;;;15.58;48.56;99521.00;5071964;28;20121;-71
2022/09/12 01:54:34;;;;;;;16.25;6.95;;;;;;;15.53;48.56;99518.06;5038741;28;20083;-72
2022/09/12 01:57:03;;;;;;;12.75;6.88;;;;;;;15.57;48.49;99514.00;5055332;28;20045;-72
2022/09/12 01:59:33;;;;;;;16.08;6.68;;;;;;;15.64;48.34;99516.72;5055286;28;20044;-71
2022/09/12 02:02:13;;;;;;;16.70;6.65;;;;;;;15.71;48.22;99510.44;5071634;28;20048;-72
2022/09/12 02:04:53;;;;;;;13.15;7.68;;;;;;;15.66;48.51;99509.34;5021916;28;20119;-71
2022/09/12 02:07:26;;;;;;;14.73;6.38;;;;;;;15.65;48.65;99515.72;5038456;28;20048;-71
2022/09/12 02:10:14;;;;;;;14.35;6.78;;;;;;;15.68;48.37;99518.00;5073053;28;20041;-71
2022/09/12 02:12:45;;;;;;;19.27;6.97;;;;;;;15.70;48.66;99518.66;5054873;28;20040;-71
2022/09/12 02:15:12;;;;;;;15.95;7.15;;;;;;;15.55;48.84;99518.72;5021793;28;20044;-71
2022/09/12 02:17:41;;;;;;;11.35;6.07;;;;;;;15.66;48.80;99512.00;5022230;28;20480;-72
2022/09/12 02:20:14;;;;;;;14.40;6.55;;;;;;;15.59;49.04;99509.28;5038546;28;20575;-72
2022/09/12 02:22:42;;;;;;;13.77;6.72;;;;;;;15.56;48.67;99523.03;5038139;28;20573;-71
2022/09/12 02:25:10;;;;;;;16.40;6.78;;;;;;;15.25;49.65;99509.16;5038372;28;20360;-72
2022/09/12 02:27:44;;;;;;;11.48;6.50;;;;;;;15.40;49.21;99515.28;5055332;28;20044;-73
2022/09/12 02:30:15;;;;;;;10.52;6.70;;;;;;;15.20;49.57;99508.88;5038340;28;20048;-71
2022/09/12 02:32:47;;;;;;;13.20;6.72;;;;;;;15.45;49.71;99509.34;5038471;28;20127;-71
2022/09/12 02:35:43;;;;;;;17.33;7.22;;;;;;;15.46;49.42;99509.16;5037757;28;20094;-71
2022/09/12 02:38:13;;;;;;;17.55;6.93;;;;;;;15.28;50.09;99511.44;5071717;28;20147;-72
2022/09/12 02:40:40;;;;;;;13.32;7.10;;;;;;;14.97;50.75;99510.91;5038154;28;20044;-71
2022/09/12 02:43:06;;;;;;;13.52;6.70;;;;;;;14.98;50.74;99512.53;5054551;28;20079;-71
2022/09/12 02:45:33;;;;;;;16.08;7.05;;;;;;;15.09;50.44;99514.72;5071111;28;20044;-70
2022/09/12 02:48:09;;;;;;;12.30;7.05;;;;;;;15.29;49.68;99513.09;5037509;28;20454;-70
2022/09/12 02:50:35;;;;;;;12.98;7.03;;;;;;;15.15;49.99;99519.31;5054107;28;20539;-71
2022/09/12 02:53:03;;;;;;;11.52;6.63;;;;;;;15.18;49.71;99514.44;5037572;28;20317;-70
2022/09/12 02:55:31;;;;;;;12.32;7.00;;;;;;;15.30;49.61;99514.72;5054408;28;20490;-70
2022/09/12 02:57:58;;;;;;;13.65;6.75;;;;;;;15.05;50.27;99516.13;5053927;28;20127;-70
2022/09/12 03:00:24;;;;;;;12.48;7.22;;;;;;;15.13;50.25;99514.16;5020919;28;20052;-72
2022/09/12 03:03:24;;;;;;;14.88;7.07;;;;;;;15.34;49.91;99518.69;5020702;28;20052;-71
2022/09/12 03:05:59;;;;;;;14.23;6.75;;;;;;;15.24;50.19;99510.16;5053613;28;20048;-71
2022/09/12 03:08:48;;;;;;;11.85;6.50;;;;;;;15.10;51.00;99511.88;5036807;28;20068;-71
2022/09/12 03:11:25;;;;;;;14.93;7.70;;;;;;;14.99;51.27;99514.22;5037306;28;20076;-71
2022/09/12 03:14:10;;;;;;;18.15;7.07;;;;;;;14.72;52.06;99498.88;5070510;28;20135;-71
2022/09/12 03:16:52;;;;;;;13.38;7.00;;;;;;;15.00;51.70;99507.84;5037072;28;20559;-71
2022/09/12 03:19:25;;;;;;;11.18;6.75;;;;;;;15.04;51.22;99511.78;5037069;28;20040;-72
2022/09/12 03:22:03;;;;;;;14.43;7.50;;;;;;;14.96;51.62;99511.94;5036999;28;20135;-71
2022/09/12 03:24:36;;;;;;;11.80;6.90;;;;;;;15.14;50.98;99512.31;5053836;28;20126;-71
2022/09/12 03:27:15;;;;;;;14.32;7.32;;;;;;;15.04;51.83;99503.75;5036961;28;20102;-72
2022/09/12 03:29:41;;;;;;;12.52;6.68;;;;;;;14.87;51.74;99505.84;5037020;28;20040;-72
2022/09/12 03:32:07;;;;;;;16.95;6.97;;;;;;;14.85;51.83;99502.53;5036810;28;20040;-72
2022/09/12 03:34:33;;;;;;;17.33;6.80;;;;;;;14.91;51.87;99503.63;5020387;28;20049;-71
2022/09/12 03:36:59;;;;;;;10.82;6.82;;;;;;;14.85;51.85;99504.38;5020746;28;20049;-72
2022/09/12 03:39:25;;;;;;;16.92;7.63;;;;;;;14.91;51.92;99496.41;5020496;28;20519;-72
2022/09/12 03:41:52;;;;;;;14.48;7.00;;;;;;;15.04;51.98;99501.94;5070793;28;20040;-72
2022/09/12 03:44:18;;;;;;;20.98;7.65;;;;;;;15.05;52.14;99497.41;5036541;28;20051;-70
2022/09/12 03:46:44;;;;;;;19.77;8.35;;;;;;;15.11;52.12;99494.78;5036680;28;20048;-71
2022/09/12 03:49:10;;;;;;;18.00;8.10;;;;;;;15.15;51.88;99492.56;5053370;28;20056;-72
2022/09/12 03:51:37;;;;;;;20.55;10.13;;;;;;;15.15;52.33;99489.91;5053043;28;20090;-72
2022/09/12 03:54:03;;;;;;;17.88;7.80;;;;;;;15.09;52.39;99494.16;5036200;28;20131;-72
2022/09/12 03:56:29;;;;;;;14.25;7.63;;;;;;;15.05;52.45;99476.00;5036318;28;20147;-72
2022/09/12 03:58:55;;;;;;;15.02;7.63;;;;;;;15.07;52.25;99492.69;5019429;28;20036;-71
2022/09/12 04:01:21;;;;;;;15.80;7.80;;;;;;;15.13;52.15;99495.44;5052862;28;20044;-72
2022/09/12 04:03:49;;;;;;;13.07;7.43;;;;;;;15.23;52.17;99498.63;5052913;28;20052;-71
2022/09/12 04:06:17;;;;;;;14.63;7.65;;;;;;;15.18;52.31;99489.50;5036534;28;20500;-72
2022/09/12 04:08:43;;;;;;;14.48;8.32;;;;;;;15.02;52.33;99495.94;5052865;28;20083;-71
2022/09/12 04:11:13;;;;;;;13.40;7.68;;;;;;;15.31;52.03;99505.72;5035989;28;20143;-71
2022/09/12 04:13:41;;;;;;;13.80;7.60;;;;;;;15.29;51.92;99497.03;5036016;28;20082;-72
2022/09/12 04:16:07;;;;;;;13.60;7.43;;;;;;;15.24;52.17;99497.59;5035962;28;20511;-71
2022/09/12 04:18:34;;;;;;;14.65;8.27;;;;;;;15.24;52.07;99494.09;5019582;28;20150;-71
2022/09/12 04:21:08;;;;;;;13.93;8.55;;;;;;;15.47;51.79;99504.66;5052323;28;20106;-72
2022/09/12 04:23:34;;;;;;;14.65;8.98;;;;;;;15.24;52.14;99497.59;5069408;28;20078;-68
2022/09/12 04:26:01;;;;;;;16.33;8.88;;;;;;;15.36;52.28;99489.88;5036039;28;20398;-68
2022/09/12 04:28:28;;;;;;;17.55;9.35;;;;;;;15.36;52.12;99499.78;5019456;28;20050;-69
2022/09/12 04:30:54;;;;;;;16.65;9.43;;;;;;;15.39;52.31;99494.06;5052447;28;20055;-70
2022/09/12 04:33:20;;;;;;;16.38;8.90;;;;;;;15.45;52.41;99491.47;5034475;28;20079;-71
2022/09/12 04:35:47;;;;;;;18.35;8.95;;;;;;;15.46;52.16;99486.91;5034673;28;20499;-69
2022/09/12 04:38:13;;;;;;;16.50;8.68;;;;;;;15.46;52.10;99479.72;5051229;28;20047;-68
2022/09/12 04:40:39;;;;;;;20.42;9.18;;;;;;;15.56;51.96;99496.28;5051259;28;20068;-68
2022/09/12 04:43:05;;;;;;;19.85;9.30;;;;;;;15.54;52.05;99505.53;5051050;28;20129;-69
2022/09/12 04:45:32;;;;;;;19.98;9.30;;;;;;;15.61;52.20;99491.19;5030269;28;20056;-69
2022/09/12 04:47:58;;;;;;;16.55;8.60;;;;;;;15.66;52.21;99487.91;5051439;28;20045;-70
2022/09/12 04:50:27;;;;;;;18.80;9.18;;;;;;;15.61;52.21;99490.34;5018218;28;20109;-70
2022/09/12 04:52:54;;;;;;;17.50;9.68;;;;;;;15.67;52.20;99493.06;5035162;28;20044;-81
2022/09/12 04:55:21;;;;;;;18.60;9.30;;;;;;;15.64;52.22;99497.97;5021158;28;20048;-70
2022/09/12 04:57:46;;;;;;;21.00;9.60;;;;;;;15.60;52.45;99492.22;5034549;28;20040;-70
2022/09/12 05:00:13;;;;;;;17.40;9.57;;;;;;;15.66;52.26;99495.94;5018574;28;20072;-71
2022/09/12 05:02:40;;;;;;;15.85;9.07;;;;;;;15.77;52.28;99482.03;5050102;28;20056;-69
2022/09/12 05:05:07;;;;;;;15.05;8.90;;;;;;;15.58;52.50;99496.06;5050116;28;20052;-69
2022/09/12 05:07:33;;;;;;;17.13;9.13;;;;;;;15.67;52.34;99487.72;5017349;28;20594;-70
2022/09/12 05:09:59;;;;;;;17.90;9.02;;;;;;;15.57;52.50;99489.06;5015906;28;20041;-69
2022/09/12 05:12:25;;;;;;;15.93;9.20;;;;;;;15.54;52.45;99474.25;5055291;28;20138;-69
2022/09/12 05:14:51;;;;;;;15.85;9.02;;;;;;;15.70;52.32;99487.31;5020270;28;20163;-68
2022/09/12 05:17:17;;;;;;;19.65;8.95;;;;;;;15.72;52.17;99487.97;5052176;28;20181;-68
2022/09/12 05:19:43;;;;;;;14.77;8.45;;;;;;;15.83;52.12;99495.47;5052909;28;20052;-69
2022/09/12 05:22:08;;;;;;;14.90;8.50;;;;;;;15.94;51.83;99484.22;5019794;28;20186;-68
2022/09/12 05:24:36;;;;;;;12.93;8.50;;;;;;;15.99;51.47;99486.31;5020637;28;20499;-68
2022/09/12 05:27:03;;;;;;;16.90;8.50;;;;;;;15.97;51.52;99483.84;5072583;28;20059;-67
2022/09/12 05:29:30;;;;;;;10.48;7.55;;;;;;;16.14;51.17;99490.53;5070864;28;20056;-67
2022/09/12 05:31:55;;;;;;;16.42;8.52;;;;;;;16.03;51.32;99491.09;5053906;28;20655;-68
2022/09/12 05:34:22;;;;;;;16.77;8.65;;;;;;;15.95;51.54;99491.22;5037987;28;20048;-68
2022/09/12 05:36:48;;;;;;;11.45;7.13;;;;;;;15.93;51.15;99490.59;5054862;28;20052;-68
2022/09/12 05:39:13;;;;;;;10.55;7.47;;;;;;;15.81;51.54;99494.84;5038224;28;20090;-68
2022/09/12 05:41:39;;;;;;;19.38;7.85;;;;;;;15.96;51.20;99490.19;5037675;28;20573;-69
2022/09/12 05:44:09;;;;;;;11.93;7.53;;;;;;;16.24;50.91;99496.38;5021347;28;20040;-69
2022/09/12 05:46:38;;;;;;;13.70;7.50;;;;;;;16.17;50.88;99483.94;5021138;28;20052;-68
2022/09/12 05:49:06;;;;;;;21.15;7.85;;;;;;;16.40;50.68;99479.97;5037645;28;20127;-68
2022/09/12 05:51:37;;;;;;;12.50;6.93;;;;;;;16.65;49.85;99485.69;5053970;28;20048;-68
2022/09/12 05:54:03;;;;;;;;;;;;;;;16.60;49.18;99480.09;5055074;28;20042;-67
2022/09/12 05:56:32;;;;;;;14.63;7.40;;;;;;;16.70;49.67;99478.66;5037483;28;19924;-68
2022/09/12 05:59:03;;;;;;;11.77;7.60;;;;;;;16.83;49.67;99481.41;5071834;28;20048;-67
2022/09/12 06:01:30;;;;;;;11.73;6.90;;;;;;;16.76;49.65;99482.38;5036949;28;20802;-68
2022/09/12 06:03:59;;;;;;;11.30;6.68;;;;;;;16.68;49.75;99482.59;5053977;28;20466;-68
2022/09/12 06:06:26;;;;;;;15.75;7.07;;;;;;;16.73;49.67;99472.06;5053491;28;20048;-67
2022/09/12 06:08:56;;;;;;;17.50;7.25;;;;;;;16.98;49.28;99483.91;5036921;28;20117;-67
2022/09/12 06:11:25;;;;;;;8.93;6.63;;;;;;;16.99;49.32;99477.50;5036817;28;20052;-68
2022/09/12 06:13:51;;;;;;;12.63;7.25;;;;;;;16.73;49.53;99464.84;5052613;28;20076;-68
2022/09/12 06:16:19;;;;;;;13.38;8.00;;;;;;;16.98;49.46;99477.72;5036670;28;20048;-68
2022/09/12 06:18:53;;;;;;;15.90;7.43;;;;;;;16.91;49.43;99482.25;5053866;28;20036;-68
2022/09/12 06:21:20;;;;;;;10.48;6.97;;;;;;;16.83;49.49;99475.22;5069983;28;20048;-68
2022/09/12 06:23:47;;;;;;;12.15;7.43;;;;;;;16.93;49.29;99489.06;5052371;28;20052;-69
2022/09/12 06:26:15;;;;;;;14.10;7.78;;;;;;;17.01;49.20;99488.88;5053737;28;20075;-69
2022/09/12 06:28:43;;;;;;;10.27;7.10;;;;;;;16.72;49.52;99468.59;5069599;28;20080;-69
2022/09/12 06:31:12;;;;;;;13.07;6.82;;;;;;;17.01;49.33;99488.88;5070586;28;20101;-69
2022/09/12 06:33:41;;;;;;;11.55;7.05;;;;;;;17.08;48.99;99488.91;5053638;28;20078;-69
2022/09/12 06:36:10;;;;;;;13.68;6.72;;;;;;;17.23;48.59;99486.84;5020275;28;20117;-69
2022/09/12 06:38:45;;;;;;;21.30;7.53;;;;;;;17.21;49.56;99484.38;5039110;28;20151;-69
2022/09/12 06:41:11;;;;;;;19.55;7.18;;;;;;;17.39;48.86;99462.31;5053859;28;20036;-69
2022/09/12 06:43:38;;;;;;;33.20;9.15;;;;;;;17.74;48.71;99482.59;5053491;28;20466;-69
2022/09/12 06:46:04;;;;;;;24.55;7.22;;;;;;;17.98;48.22;99492.69;5069059;28;20419;-69
2022/09/12 06:48:30;;;;;;;17.77;6.60;;;;;;;18.23;46.94;99501.75;5069819;28;20045;-69
2022/09/12 06:51:05;;;;;;;12.10;5.80;;;;;;;18.32;45.92;99490.56;5036569;28;20040;-69
2022/09/12 06:53:35;;;;;;;21.67;6.10;;;;;;;17.91;47.07;99502.63;5069165;28;20792;-68
2022/09/12 06:56:05;;;;;;;13.23;4.47;;;;;;;17.51;47.32;99484.88;5020107;28;20781;-69
2022/09/12 06:58:32;;;;;;;9.90;4.53;;;;;;;17.03;48.05;99478.78;5069845;28;20481;-69
2022/09/12 07:01:12;;;;;;;10.68;5.07;;;;;;;17.07;48.18;99504.16;5019773;28;20458;-69
2022/09/12 07:03:38;;;;;;;8.25;4.80;;;;;;;16.65;49.23;99493.72;5053030;28;20041;-69
2022/09/12 07:06:15;;;;;;;16.17;5.22;;;;;;;17.00;49.27;99494.44;5036311;28;20086;-69
2022/09/12 07:08:41;;;;;;;6.80;4.78;;;;;;;17.03;48.71;99496.72;5069104;28;20131;-69
2022/09/12 07:11:10;;;;;;;7.18;4.80;;;;;;;16.91;49.30;99490.28;5036111;28;20055;-69
2022/09/12 07:13:36;;;;;;;8.88;5.00;;;;;;;16.82;49.28;99479.75;5051950;28;20053;-68
2022/09/12 07:16:06;;;;;;;10.35;5.22;;;;;;;17.01;49.44;99488.88;5036060;28;20041;-68
2022/09/12 07:18:33;;;;;;;6.60;5.00;;;;;;;17.22;48.70;99504.00;5035823;28;20189;-69
2022/09/12 07:21:02;;;;;;;5.90;4.43;;;;;;;17.48;48.15;99498.69;5052719;28;20194;-69
2022/09/12 07:23:29;;;;;;;8.40;4.93;;;;;;;17.44;48.09;99505.50;5068805;28;20044;-69
2022/09/12 07:25:56;;;;;;;10.25;4.65;;;;;;;17.41;48.20;99508.56;5068621;28;20423;-69
2022/09/12 07:28:26;;;;;;;10.18;4.57;;;;;;;17.55;47.76;99510.25;5068449;28;20120;-68
2022/09/12 07:30:54;;;;;;;7.45;4.40;;;;;;;16.90;49.09;99508.22;5052628;28;20040;-68
2022/09/12 07:33:22;;;;;;;7.03;4.13;;;;;;;17.32;48.63;99509.78;5052627;28;20055;-68
2022/09/12 07:35:48;;;;;;;7.38;4.38;;;;;;;17.22;48.61;99512.06;5051960;28;20537;-69
2022/09/12 07:38:15;;;;;;;13.48;4.72;;;;;;;17.34;48.21;99505.88;5069005;28;20036;-68
2022/09/12 07:40:41;;;;;;;7.35;4.57;;;;;;;17.02;49.42;99513.84;5068780;28;20052;-68
2022/09/12 07:43:07;;;;;;;6.20;5.15;;;;;;;16.70;49.56;99534.16;5039074;28;20045;-69
2022/09/12 07:45:32;;;;;;;8.30;4.55;;;;;;;16.94;48.87;99514.88;5049918;28;20122;-69
2022/09/12 07:47:58;;;;;;;6.45;5.03;;;;;;;17.30;48.59;99525.28;5016129;28;20477;-69
2022/09/12 07:50:24;;;;;;;6.28;4.80;;;;;;;17.38;48.27;99522.41;5031822;28;20440;-69
2022/09/12 07:52:51;;;;;;;6.15;4.82;;;;;;;17.41;48.26;99528.19;5016008;28;20040;-69
2022/09/12 07:55:17;;;;;;;6.80;4.88;;;;;;;17.63;47.99;99520.81;5065165;28;20521;-69
2022/09/12 07:57:42;;;;;;;7.43;4.90;;;;;;;17.55;47.71;99518.31;5048421;28;20052;-68
2022/09/12 08:00:09;;;;;;;7.47;5.10;;;;;;;17.88;47.36;99528.03;5031971;28;20049;-69
2022/09/12 08:02:38;;;;;;;6.78;5.22;;;;;;;17.97;46.91;99520.59;5032643;28;20127;-69
2022/09/12 08:05:04;;;;;;;9.95;5.65;;;;;;;18.09;46.31;99527.00;5031575;28;20047;-69
2022/09/12 08:07:29;;;;;;;9.32;5.97;;;;;;;17.74;46.69;99520.19;5015117;28;20606;-69
2022/09/12 08:09:55;;;;;;;9.57;5.95;;;;;;;17.87;46.39;99507.59;5048210;28;20049;-69
2022/09/12 08:12:21;;;;;;;9.95;5.88;;;;;;;17.25;47.73;99533.13;5047500;28;20122;-68
2022/09/12 08:14:47;;;;;;;14.02;6.50;;;;;;;16.90;48.69;99518.16;5055486;28;20109;-69
2022/09/12 08:17:13;;;;;;;10.32;5.85;;;;;;;17.25;47.97;99500.91;5054750;28;20039;-68
2022/09/12 08:19:39;;;;;;;11.45;6.40;;;;;;;17.11;48.23;99516.16;5054810;28;20044;-69
2022/09/12 08:22:04;;;;;;;9.60;6.57;;;;;;;17.24;48.18;99513.50;5049248;28;20048;-69
2022/09/12 08:24:31;;;;;;;11.07;6.70;;;;;;;17.48;47.45;99521.00;5051390;28;20107;-69
2022/09/12 08:26:56;;;;;;;11.07;7.10;;;;;;;17.11;47.72;99526.06;5035180;28;20123;-69
2022/09/12 08:29:22;;;;;;;14.52;6.50;;;;;;;17.47;47.39;99519.34;5035078;28;20139;-69
2022/09/12 08:31:48;;;;;;;12.50;7.50;;;;;;;17.06;47.21;99509.72;5069696;28;20040;-69
2022/09/12 08:34:15;;;;;;;11.98;6.53;;;;;;;17.41;46.74;99513.94;5035009;28;20060;-69
2022/09/12 08:36:41;;;;;;;11.77;6.85;;;;;;;17.58;46.37;99515.22;5035122;28;20047;-68
2022/09/12 08:39:07;;;;;;;13.38;6.88;;;;;;;17.94;45.13;99512.97;5034851;28;20041;-69
2022/09/12 08:41:47;;;;;;;18.15;7.07;;;;;;;18.17;44.88;99514.16;5018384;28;20135;-69
2022/09/12 08:44:34;;;;;;;19.73;7.78;;;;;;;18.50;44.50;99522.19;5067845;28;20036;-69
2022/09/12 08:47:15;;;;;;;14.90;8.48;;;;;;;18.50;43.83;99519.50;5071443;28;20140;-68
2022/09/12 08:50:20;;;;;;;21.10;8.55;;;;;;;17.97;44.27;99517.91;5038827;28;20109;-69
2022/09/12 08:53:01;;;;;;;18.33;8.23;;;;;;;18.38;43.60;99522.03;5073920;28;20044;-69
2022/09/12 08:55:30;;;;;;;16.85;8.68;;;;;;;18.29;43.46;99500.91;5074313;28;20044;-69
2022/09/12 08:58:09;;;;;;;17.40;9.13;;;;;;;18.42;42.88;99533.16;5054623;28;20041;-69
2022/09/12 09:00:41;;;;;;;16.23;8.80;;;;;;;18.89;42.42;99505.91;5055359;28;20048;-69
2022/09/12 09:03:54;;;;;;;17.95;9.18;;;;;;;19.30;41.45;99524.31;5071889;28;20407;-69
2022/09/12 09:06:38;;;;;;;19.05;9.90;;;;;;;19.02;41.81;99527.34;5039335;28;20045;-70
2022/09/12 09:09:07;;;;;;;17.48;8.77;;;;;;;19.12;41.37;99502.66;5042632;28;20083;-70
2022/09/12 09:11:54;;;;;;;20.70;9.13;;;;;;;19.47;40.90;99518.22;5034920;28;20044;-69
2022/09/12 09:14:47;;;;;;;19.83;9.63;;;;;;;19.84;39.84;99513.78;5021237;28;20068;-69
2022/09/12 09:17:21;;;;;;;19.58;10.20;;;;;;;19.77;40.31;99508.44;5064789;28;20048;-70
2022/09/12 09:20:21;;;;;;;18.48;9.77;;;;;;;20.26;38.96;99506.78;5024008;28;20052;-70
2022/09/12 09:23:14;;;;;;;18.75;8.85;;;;;;;20.39;38.42;99496.69;5071291;28;20040;-71
2022/09/12 09:25:50;;;;;;;18.70;9.45;;;;;;;19.98;39.13;99509.94;5061061;28;20041;-70
2022/09/12 09:28:26;;;;;;;21.67;10.10;;;;;;;19.47;39.69;99517.38;5053562;28;20550;-70
2022/09/12 09:30:52;;;;;;;21.83;9.75;;;;;;;19.55;40.33;99525.22;5058335;28;20048;-69
2022/09/12 09:33:23;;;;;;;17.27;9.65;;;;;;;19.30;40.54;99506.31;5035442;28;20497;-69
2022/09/12 09:36:03;;;;;;;21.58;10.40;;;;;;;19.78;39.80;99522.75;5040152;28;20095;-70
2022/09/12 09:38:43;;;;;;;17.63;10.63;;;;;;;19.62;40.19;99528.69;5054110;28;20052;-70
2022/09/12 09:41:35;;;;;;;20.30;10.00;;;;;;;19.87;39.72;99522.25;5080066;28;20045;-70
2022/09/12 09:44:01;;;;;;;19.35;10.23;;;;;;;19.67;39.49;99523.44;5040704;28;20139;-69
2022/09/12 09:46:27;;;;;;;19.70;10.80;;;;;;;19.77;39.42;99524.63;5021482;28;20045;-71
2022/09/12 09:48:54;;;;;;;22.10;11.80;;;;;;;19.85;39.13;99524.34;5035119;28;20049;-71
2022/09/12 09:51:25;;;;;;;26.17;11.75;;;;;;;19.63;39.69;99522.25;5034848;28;20048;-71
2022/09/12 09:54:02;;;;;;;17.45;10.32;;;;;;;19.54;39.57;99535.16;5034717;28;20101;-69
2022/09/12 09:56:45;;;;;;;23.48;11.35;;;;;;;19.83;39.68;99518.34;5042275;28;20045;-68
2022/09/12 09:59:14;;;;;;;22.58;11.02;;;;;;;19.88;38.64;99526.59;5034072;28;20041;-69
2022/09/12 10:01:56;;;;;;;21.65;11.27;;;;;;;19.94;38.37;99512.22;5049189;28;20493;-69
2022/09/12 10:04:31;;;;;;;21.75;10.57;;;;;;;19.69;39.44;99529.47;5039399;28;20045;-71
2022/09/12 10:07:01;;;;;;;20.98;11.10;;;;;;;20.02;39.24;99528.13;5033979;28;20060;-69
2022/09/12 10:09:31;;;;;;;20.88;11.38;;;;;;;19.79;39.03;99525.22;5033987;28;20075;-70
2022/09/12 10:12:00;;;;;;;25.27;11.80;;;;;;;19.45;39.71;99533.75;5049657;28;20041;-68
2022/09/12 10:14:33;;;;;;;29.67;12.45;;;;;;;19.67;39.06;99526.16;5051572;28;20056;-67
2022/09/12 10:17:02;;;;;;;32.17;12.85;;;;;;;19.43;39.75;99526.94;5050792;28;20076;-69
2022/09/12 10:19:39;;;;;;;27.60;13.15;;;;;;;20.18;38.99;99524.09;5017284;28;20037;-69
2022/09/12 10:22:06;;;;;;;20.08;11.85;;;;;;;20.23;38.60;99515.31;5054348;28;20600;-70
2022/09/12 10:24:42;;;;;;;27.65;13.00;;;;;;;20.11;38.09;99509.81;5070150;28;20066;-70
2022/09/12 10:27:15;;;;;;;34.45;13.13;;;;;;;19.83;39.35;99514.84;5070398;28;20571;-70
2022/09/12 10:29:48;;;;;;;25.10;12.70;;;;;;;20.47;37.86;99509.03;5037008;28;20079;-70
2022/09/12 10:32:39;;;;;;;24.70;13.32;;;;;;;21.13;36.68;99526.13;5070032;28;20041;-71
2022/09/12 10:35:27;;;;;;;25.67;14.00;;;;;;;21.20;36.49;99521.47;5036941;28;20075;-71
2022/09/12 10:37:57;;;;;;;26.77;13.13;;;;;;;21.34;36.29;99521.03;5038949;28;20109;-70
2022/09/12 10:40:24;;;;;;;40.37;15.83;;;;;;;21.08;36.35;99521.41;5036491;28;20145;-71
2022/09/12 10:42:56;;;;;;;25.33;13.90;;;;;;;21.41;36.24;99526.34;5053010;28;20059;-70
2022/09/12 10:45:27;;;;;;;33.95;14.32;;;;;;;21.37;36.10;99525.97;5036856;28;20036;-70
2022/09/12 10:48:01;;;;;;;35.63;15.85;;;;;;;21.47;36.04;99534.34;5036880;28;20082;-70
2022/09/12 10:50:41;;;;;;;31.35;15.60;;;;;;;20.77;36.59;99509.94;5052746;28;20052;-70
2022/09/12 10:53:22;;;;;;;31.23;15.90;;;;;;;20.70;37.22;99528.09;5028222;28;20074;-71
2022/09/12 10:56:00;;;;;;;31.08;15.00;;;;;;;20.92;36.86;99499.56;5032513;28;20049;-70
2022/09/12 10:58:55;;;;;;;30.00;14.20;;;;;;;21.34;35.93;99510.22;5033273;28;20041;-69
2022/09/12 11:01:40;;;;;;;32.92;15.50;;;;;;;20.91;36.58;99511.44;5016355;28;20106;-69
2022/09/12 11:04:21;;;;;;;36.58;16.00;;;;;;;21.10;36.14;99511.19;5033137;28;20055;-69
2022/09/12 11:07:17;;;;;;;29.10;14.63;;;;;;;21.45;35.52;99524.81;5054844;28;20136;-71
2022/09/12 11:10:10;;;;;;;28.02;14.73;;;;;;;21.52;35.56;99509.34;5017877;28;20044;-71
2022/09/12 11:13:02;;;;;;;26.27;13.65;;;;;;;21.39;35.32;99518.47;5048576;28;20056;-71
2022/09/12 11:15:46;;;;;;;27.08;13.20;;;;;;;21.41;35.69;99513.66;5013655;28;20565;-70
2022/09/12 11:18:33;;;;;;;27.65;13.23;;;;;;;21.19;34.44;99520.63;5049006;28;20136;-71
2022/09/12 11:21:12;;;;;;;27.20;12.85;;;;;;;21.37;33.96;99512.47;5032557;28;20516;-70
2022/09/12 11:24:03;;;;;;;23.20;13.05;;;;;;;21.11;34.02;99503.94;5015885;28;20134;-71
2022/09/12 11:26:56;;;;;;;27.40;14.00;;;;;;;20.52;35.00;99509.19;5016217;28;20048;-70
2022/09/12 11:29:28;;;;;;;34.00;14.30;;;;;;;20.14;35.51;99498.63;5016299;28;20090;-70
2022/09/12 11:32:36;;;;;;;23.63;13.75;;;;;;;19.95;35.99;99499.59;5016681;28;20143;-71
2022/09/12 11:35:27;;;;;;;27.02;12.95;;;;;;;20.09;35.63;99493.88;5012156;28;20514;-72
2022/09/12 11:38:02;;;;;;;34.28;14.90;;;;;;;20.64;34.82;99510.09;5016007;28;20410;-72
2022/09/12 11:40:33;;;;;;;29.40;15.15;;;;;;;20.09;35.73;99496.56;5015710;28;20045;-72
2022/09/12 11:43:28;;;;;;;32.47;14.18;;;;;;;20.57;34.94;99499.41;5032192;28;20555;-71
2022/09/12 11:46:00;;;;;;;34.60;14.75;;;;;;;20.34;35.35;99503.81;5032357;28;20210;-71
2022/09/12 11:48:41;;;;;;;26.30;14.10;;;;;;;20.20;35.31;99503.13;5033784;28;20059;-73